Time;durP1;ratioP1;P1;durP2;ratioP2;P2;SDS_P1;SDS_P2;PMS_P1;PMS_P2;Temp;Humidity;BMP_temperature;BMP_pressure;BME280_temperature;BME280_humidity;BME280_pressure;Samples;Min_cycle;Max_cycle;Signal;HPM_P1;HPM_P2
2022/10/31 00:01:27;;;;;;;;;1.00;1.00;;;;;;;;4760824;30;8934;-92
2022/10/31 00:03:53;;;;;;;;;0.00;0.00;;;;;;;;4739379;30;8868;-92
2022/10/31 00:06:18;;;;;;;;;0.00;0.00;;;;;;;;4739457;30;11815;-92
2022/10/31 00:08:47;;;;;;;;;0.00;0.00;;;;;;;;4735073;30;9018;-92
2022/10/31 00:11:13;;;;;;;;;0.00;0.00;;;;;;;;4757022;30;8832;-92
2022/10/31 00:13:38;;;;;;;;;0.00;0.00;;;;;;;;4741916;30;11765;-92
2022/10/31 00:16:03;;;;;;;;;0.00;0.00;;;;;;;;4743285;30;8912;-91
2022/10/31 00:18:28;;;;;;;;;0.00;0.00;;;;;;;;4743575;30;9626;-93
2022/10/31 00:21:00;;;;;;;;;0.00;0.00;;;;;;;;4744773;30;9019;-92
2022/10/31 00:23:26;;;;;;;;;0.00;0.00;;;;;;;;4745029;30;9829;-93
2022/10/31 00:25:51;;;;;;;;;0.00;0.00;;;;;;;;4742505;30;11719;-93
2022/10/31 00:28:16;;;;;;;;;0.00;0.00;;;;;;;;4743161;30;8896;-92
2022/10/31 00:30:41;;;;;;;;;0.00;0.00;;;;;;;;4759884;30;8985;-92
2022/10/31 00:33:06;;;;;;;;;0.00;0.00;;;;;;;;4734510;30;8902;-92
2022/10/31 00:35:32;;;;;;;;;0.00;0.00;;;;;;;;4735407;30;8894;-92
2022/10/31 00:37:57;;;;;;;;;0.00;0.00;;;;;;;;4741628;30;8909;-91
2022/10/31 00:40:22;;;;;;;;;0.00;0.00;;;;;;;;4744431;30;8888;-92
2022/10/31 00:42:47;;;;;;;;;1.00;1.00;;;;;;;;4742925;30;9696;-91
2022/10/31 00:45:12;;;;;;;;;0.00;0.00;;;;;;;;4747631;30;8880;-92
2022/10/31 00:47:38;;;;;;;;;0.00;0.00;;;;;;;;4757779;30;8864;-92
2022/10/31 00:50:04;;;;;;;;;0.00;0.00;;;;;;;;4739792;30;8884;-92
2022/10/31 00:52:29;;;;;;;;;0.00;0.00;;;;;;;;4747690;30;9835;-92
2022/10/31 00:54:54;;;;;;;;;0.00;0.00;;;;;;;;4737549;30;11744;-91
2022/10/31 00:57:19;;;;;;;;;0.00;0.00;;;;;;;;4747103;30;8913;-91
2022/10/31 00:59:45;;;;;;;;;0.00;0.00;;;;;;;;4753107;30;8898;-92
2022/10/31 01:02:10;;;;;;;;;0.00;0.00;;;;;;;;4741927;30;8879;-91
2022/10/31 01:04:35;;;;;;;;;0.00;0.00;;;;;;;;4749322;30;8857;-91
2022/10/31 01:07:00;;;;;;;;;0.00;0.00;;;;;;;;4738585;30;9021;-92
2022/10/31 01:09:25;;;;;;;;;0.00;0.00;;;;;;;;4743369;30;8879;-92
2022/10/31 01:11:51;;;;;;;;;0.00;0.00;;;;;;;;4748225;30;8874;-92
2022/10/31 01:14:16;;;;;;;;;0.00;0.00;;;;;;;;4741879;30;9395;-92
2022/10/31 01:16:41;;;;;;;;;0.00;0.00;;;;;;;;4765720;30;8974;-92
2022/10/31 01:19:06;;;;;;;;;7.00;7.00;;;;;;;;4748716;30;8895;-92
2022/10/31 01:21:31;;;;;;;;;0.00;0.00;;;;;;;;4748434;30;8923;-92
2022/10/31 01:23:57;;;;;;;;;0.00;0.00;;;;;;;;4738625;30;8896;-93
2022/10/31 01:26:25;;;;;;;;;0.00;0.00;;;;;;;;4744669;30;8883;-92
2022/10/31 01:28:52;;;;;;;;;0.00;0.00;;;;;;;;4748525;30;8864;-91
2022/10/31 01:31:18;;;;;;;;;0.00;0.00;;;;;;;;4736689;30;11815;-92
2022/10/31 01:33:43;;;;;;;;;0.00;0.00;;;;;;;;4742599;30;11788;-93
2022/10/31 01:36:12;;;;;;;;;0.00;0.00;;;;;;;;4755732;30;8890;-92
2022/10/31 01:38:37;;;;;;;;;0.00;0.00;;;;;;;;4764068;30;8854;-92
2022/10/31 01:41:02;;;;;;;;;0.00;0.00;;;;;;;;4749041;30;11734;-92
2022/10/31 01:43:45;;;;;;;;;0.00;0.00;;;;;;;;4763825;30;8872;-92
2022/10/31 01:46:11;;;;;;;;;0.00;0.00;;;;;;;;4735508;30;8851;-92
2022/10/31 01:48:36;;;;;;;;;0.00;0.00;;;;;;;;4751514;30;11821;-91
2022/10/31 01:51:04;;;;;;;;;0.00;0.00;;;;;;;;4760356;30;8896;-91
2022/10/31 01:53:30;;;;;;;;;0.00;0.00;;;;;;;;4756779;30;9627;-91
2022/10/31 01:55:55;;;;;;;;;0.00;0.00;;;;;;;;4743756;30;11727;-92
2022/10/31 01:58:24;;;;;;;;;0.00;0.00;;;;;;;;4754283;30;8896;-91
2022/10/31 02:00:51;;;;;;;;;0.00;0.00;;;;;;;;4756685;30;8871;-92
2022/10/31 02:03:17;;;;;;;;;0.00;0.00;;;;;;;;4737276;30;11758;-92
2022/10/31 02:05:42;;;;;;;;;0.00;0.00;;;;;;;;4744518;30;11723;-92
2022/10/31 02:08:12;;;;;;;;;0.00;0.00;;;;;;;;4740691;30;8894;-92
2022/10/31 02:10:37;;;;;;;;;0.00;0.00;;;;;;;;4744061;30;8880;-92
2022/10/31 02:13:03;;;;;;;;;0.00;0.00;;;;;;;;4749497;30;11746;-90
2022/10/31 02:15:30;;;;;;;;;0.00;0.00;;;;;;;;4745789;30;8923;-91
2022/10/31 02:17:55;;;;;;;;;0.00;0.00;;;;;;;;4767617;30;11795;-92
2022/10/31 02:20:23;;;;;;;;;0.00;0.00;;;;;;;;4763265;30;11723;-91
2022/10/31 02:22:48;;;;;;;;;10.00;10.00;;;;;;;;4753533;30;9581;-91
2022/10/31 02:25:32;;;;;;;;;0.00;0.00;;;;;;;;4749454;30;8965;-91
2022/10/31 02:28:15;;;;;;;;;0.33;0.33;;;;;;;;4736911;30;9074;-92
2022/10/31 02:30:52;;;;;;;;;0.00;0.00;;;;;;;;4758841;30;11722;-92
2022/10/31 02:33:25;;;;;;;;;0.00;0.00;;;;;;;;4735984;30;11683;-92
2022/10/31 02:35:55;;;;;;;;;0.00;0.00;;;;;;;;4754790;30;11726;-92
2022/10/31 02:38:37;;;;;;;;;0.00;0.00;;;;;;;;4748105;30;12722;-91
2022/10/31 02:41:05;;;;;;;;;0.00;0.00;;;;;;;;4734945;30;11739;-93
2022/10/31 02:43:30;;;;;;;;;0.00;0.00;;;;;;;;4743305;30;11747;-92
2022/10/31 02:45:56;;;;;;;;;0.00;0.00;;;;;;;;4745965;30;11785;-92
2022/10/31 02:48:26;;;;;;;;;0.00;0.00;;;;;;;;4746557;30;9680;-92
2022/10/31 02:51:02;;;;;;;;;0.00;0.00;;;;;;;;4735295;30;8882;-91
2022/10/31 02:53:31;;;;;;;;;0.00;0.00;;;;;;;;4735770;30;11714;-92
2022/10/31 02:55:59;;;;;;;;;0.00;0.00;;;;;;;;4735184;30;11833;-92
2022/10/31 02:58:26;;;;;;;;;0.00;0.00;;;;;;;;4739123;30;11725;-91
2022/10/31 03:01:00;;;;;;;;;0.00;0.00;;;;;;;;4738424;30;11744;-91
2022/10/31 03:03:44;;;;;;;;;0.00;0.00;;;;;;;;4762310;30;11774;-92
2022/10/31 03:06:16;;;;;;;;;0.00;0.00;;;;;;;;4747879;30;11687;-92
2022/10/31 03:08:48;;;;;;;;;0.00;0.00;;;;;;;;4735164;30;11730;-92
2022/10/31 03:11:13;;;;;;;;;0.00;0.00;;;;;;;;4734739;30;11718;-92
2022/10/31 03:13:38;;;;;;;;;0.00;0.00;;;;;;;;4739700;30;11733;-92
2022/10/31 03:16:16;;;;;;;;;0.00;0.00;;;;;;;;4742131;30;8925;-92
2022/10/31 03:18:58;;;;;;;;;0.00;0.00;;;;;;;;4735211;30;8875;-92
2022/10/31 03:21:27;;;;;;;;;0.00;0.00;;;;;;;;4745637;30;11718;-92
2022/10/31 03:23:52;;;;;;;;;0.00;0.00;;;;;;;;4737844;30;11715;-91
2022/10/31 03:26:19;;;;;;;;;0.00;0.00;;;;;;;;4739956;30;11840;-92
2022/10/31 03:28:49;;;;;;;;;0.00;0.00;;;;;;;;4766901;30;8856;-92
2022/10/31 03:31:16;;;;;;;;;3.00;3.00;;;;;;;;4743920;30;11715;-92
2022/10/31 03:33:42;;;;;;;;;0.00;0.00;;;;;;;;4735896;30;11794;-92
2022/10/31 03:36:08;;;;;;;;;0.00;0.00;;;;;;;;4750429;30;11747;-92
2022/10/31 03:38:35;;;;;;;;;0.00;0.00;;;;;;;;4735688;30;8960;-92
2022/10/31 03:41:01;;;;;;;;;0.00;0.00;;;;;;;;4749926;30;11784;-91
2022/10/31 03:43:28;;;;;;;;;0.00;0.00;;;;;;;;4753578;30;11729;-92
2022/10/31 03:45:53;;;;;;;;;0.00;0.00;;;;;;;;4759129;30;11690;-92
2022/10/31 03:48:20;;;;;;;;;0.00;0.00;;;;;;;;4756819;30;11723;-92
2022/10/31 03:50:45;;;;;;;;;0.00;0.00;;;;;;;;4741387;30;8887;-92
2022/10/31 03:53:14;;;;;;;;;3.00;3.00;;;;;;;;4738692;30;11754;-91
2022/10/31 03:55:49;;;;;;;;;0.00;0.00;;;;;;;;4756135;30;8906;-92
2022/10/31 03:58:29;;;;;;;;;0.00;0.00;;;;;;;;4754863;30;11699;-92
2022/10/31 04:00:55;;;;;;;;;0.00;0.00;;;;;;;;4754513;30;11694;-92
2022/10/31 04:03:28;;;;;;;;;16.00;16.00;;;;;;;;4754808;30;11730;-91
2022/10/31 04:05:55;;;;;;;;;4.00;4.00;;;;;;;;4758509;30;8977;-92
2022/10/31 04:08:21;;;;;;;;;0.00;0.00;;;;;;;;4736267;30;8892;-92
2022/10/31 04:10:48;;;;;;;;;0.00;0.00;;;;;;;;4764049;30;12226;-91
2022/10/31 04:13:15;;;;;;;;;0.67;0.67;;;;;;;;4739012;30;11719;-92
2022/10/31 04:15:41;;;;;;;;;0.00;0.00;;;;;;;;4743527;30;8882;-92
2022/10/31 04:18:06;;;;;;;;;0.00;0.00;;;;;;;;4753870;30;8843;-91
2022/10/31 04:20:33;;;;;;;;;0.00;0.00;;;;;;;;4745619;30;11810;-91
2022/10/31 04:22:58;;;;;;;;;0.00;0.00;;;;;;;;4751257;30;9877;-93
2022/10/31 04:25:23;;;;;;;;;0.00;0.00;;;;;;;;4743428;30;11781;-92
2022/10/31 04:27:48;;;;;;;;;10.00;10.00;;;;;;;;4766139;30;8884;-91
2022/10/31 04:30:14;;;;;;;;;0.00;0.00;;;;;;;;4758121;30;9636;-92
2022/10/31 04:32:39;;;;;;;;;0.00;0.00;;;;;;;;4760555;30;8901;-92
2022/10/31 04:35:04;;;;;;;;;0.00;0.00;;;;;;;;4740866;30;8989;-92
2022/10/31 04:37:29;;;;;;;;;0.00;0.00;;;;;;;;4744751;30;8900;-91
2022/10/31 04:39:55;;;;;;;;;0.00;0.00;;;;;;;;4744488;30;8894;-91
2022/10/31 04:42:20;;;;;;;;;0.00;0.00;;;;;;;;4743734;30;8855;-92
2022/10/31 04:44:45;;;;;;;;;0.00;0.00;;;;;;;;4737521;30;8887;-91
2022/10/31 04:47:10;;;;;;;;;0.00;0.00;;;;;;;;4742247;30;8856;-91
2022/10/31 04:49:35;;;;;;;;;0.00;0.00;;;;;;;;4745156;30;8867;-92
2022/10/31 04:52:00;;;;;;;;;0.00;0.00;;;;;;;;4739282;30;8867;-91
2022/10/31 04:54:26;;;;;;;;;7.00;7.00;;;;;;;;4746762;30;8892;-91
2022/10/31 04:56:51;;;;;;;;;0.00;0.00;;;;;;;;4753411;30;8898;-91
2022/10/31 04:59:16;;;;;;;;;0.00;0.00;;;;;;;;4755973;30;8887;-91
2022/10/31 05:01:41;;;;;;;;;0.00;0.00;;;;;;;;4753607;30;8893;-92
2022/10/31 05:04:06;;;;;;;;;0.00;0.00;;;;;;;;4747355;30;8902;-91
2022/10/31 05:06:32;;;;;;;;;0.00;0.00;;;;;;;;4757366;30;8875;-91
2022/10/31 05:08:57;;;;;;;;;0.00;0.00;;;;;;;;4736194;30;8904;-91
2022/10/31 05:11:22;;;;;;;;;0.00;0.00;;;;;;;;4745154;30;8964;-91
2022/10/31 05:13:47;;;;;;;;;0.00;0.00;;;;;;;;4741682;30;8969;-92
2022/10/31 05:16:12;;;;;;;;;0.00;0.00;;;;;;;;4742656;30;8903;-92
2022/10/31 05:18:37;;;;;;;;;0.00;0.00;;;;;;;;4750815;30;8926;-90
2022/10/31 05:21:03;;;;;;;;;0.00;0.00;;;;;;;;4736151;30;8898;-92
2022/10/31 05:23:28;;;;;;;;;0.00;0.00;;;;;;;;4737174;30;9057;-91
2022/10/31 05:25:53;;;;;;;;;0.00;0.00;;;;;;;;4763210;30;9005;-91
2022/10/31 05:28:18;;;;;;;;;0.00;0.00;;;;;;;;4745586;30;9343;-91
2022/10/31 05:30:43;;;;;;;;;0.00;0.00;;;;;;;;4754519;30;9050;-92
2022/10/31 05:33:09;;;;;;;;;0.00;0.00;;;;;;;;4740002;30;9039;-91
2022/10/31 05:35:34;;;;;;;;;0.00;0.00;;;;;;;;4741430;30;8895;-92
2022/10/31 05:37:59;;;;;;;;;0.00;0.00;;;;;;;;4760701;30;8871;-92
2022/10/31 05:40:25;;;;;;;;;0.00;0.00;;;;;;;;4740876;30;8986;-91
2022/10/31 05:42:51;;;;;;;;;0.00;0.00;;;;;;;;4742952;30;8893;-91
2022/10/31 05:45:17;;;;;;;;;0.00;0.00;;;;;;;;4758066;30;8872;-91
2022/10/31 05:47:49;;;;;;;;;0.00;0.00;;;;;;;;4746319;30;8889;-92
2022/10/31 05:50:14;;;;;;;;;0.00;0.00;;;;;;;;4756203;30;11725;-92
2022/10/31 05:52:40;;;;;;;;;0.00;0.00;;;;;;;;4759575;30;11715;-92
2022/10/31 05:55:05;;;;;;;;;0.00;0.00;;;;;;;;4736398;30;8880;-91
2022/10/31 05:57:31;;;;;;;;;0.00;0.00;;;;;;;;4750579;30;8969;-91
2022/10/31 05:59:56;;;;;;;;;0.00;0.00;;;;;;;;4746947;30;8942;-92
2022/10/31 06:02:22;;;;;;;;;0.00;0.00;;;;;;;;4735228;30;11731;-91
2022/10/31 06:04:47;;;;;;;;;0.00;0.00;;;;;;;;4739788;30;8982;-91
2022/10/31 06:07:12;;;;;;;;;0.00;0.00;;;;;;;;4741312;30;8931;-91
2022/10/31 06:09:37;;;;;;;;;0.00;0.00;;;;;;;;4744162;30;8879;-91
2022/10/31 06:12:03;;;;;;;;;0.00;0.00;;;;;;;;4746895;30;8891;-91
2022/10/31 06:14:28;;;;;;;;;0.00;0.00;;;;;;;;4745727;30;8904;-91
2022/10/31 06:16:56;;;;;;;;;0.00;0.00;;;;;;;;4753861;30;8867;-91
2022/10/31 06:19:21;;;;;;;;;0.00;0.00;;;;;;;;4744165;30;8880;-92
2022/10/31 06:21:46;;;;;;;;;0.00;0.00;;;;;;;;4765057;30;11753;-92
2022/10/31 06:24:11;;;;;;;;;0.00;0.00;;;;;;;;4750886;30;8890;-92
2022/10/31 06:26:37;;;;;;;;;0.00;0.00;;;;;;;;4740569;30;8934;-91
2022/10/31 06:29:02;;;;;;;;;9.00;9.00;;;;;;;;4753852;30;9664;-92
2022/10/31 06:31:27;;;;;;;;;0.00;0.00;;;;;;;;4759415;30;8880;-91
2022/10/31 06:33:52;;;;;;;;;0.00;0.00;;;;;;;;4737853;30;8893;-91
2022/10/31 06:36:17;;;;;;;;;0.00;0.00;;;;;;;;4735486;30;8889;-91
2022/10/31 06:38:43;;;;;;;;;16.00;16.00;;;;;;;;4747288;30;9026;-91
2022/10/31 06:41:08;;;;;;;;;0.00;0.00;;;;;;;;4761079;30;9140;-92
2022/10/31 06:43:33;;;;;;;;;0.00;0.00;;;;;;;;4762869;30;8882;-90
2022/10/31 06:46:01;;;;;;;;;0.00;0.00;;;;;;;;4743391;30;8876;-91
2022/10/31 06:48:26;;;;;;;;;90.67;77.00;;;;;;;;4740737;30;8964;-91
2022/10/31 06:50:52;;;;;;;;;0.00;0.00;;;;;;;;4742033;30;11719;-91
2022/10/31 06:53:17;;;;;;;;;0.00;0.00;;;;;;;;4752869;30;9613;-92
2022/10/31 06:55:42;;;;;;;;;0.00;0.00;;;;;;;;4763851;30;8940;-92
2022/10/31 06:58:09;;;;;;;;;0.00;0.00;;;;;;;;4735991;30;8875;-91
2022/10/31 07:00:34;;;;;;;;;0.00;0.00;;;;;;;;4745647;30;8996;-91
2022/10/31 07:03:04;;;;;;;;;0.00;0.00;;;;;;;;4742790;30;11750;-91
2022/10/31 07:05:29;;;;;;;;;0.00;0.00;;;;;;;;4735864;30;8878;-92
2022/10/31 07:07:55;;;;;;;;;0.00;0.00;;;;;;;;4761113;30;11739;-92
2022/10/31 07:10:21;;;;;;;;;0.00;0.00;;;;;;;;4750182;30;8868;-92
2022/10/31 07:12:47;;;;;;;;;0.00;0.00;;;;;;;;4757735;30;11727;-91
2022/10/31 07:15:12;;;;;;;;;0.00;0.00;;;;;;;;4738478;30;8868;-91
2022/10/31 07:17:37;;;;;;;;;0.00;0.00;;;;;;;;4742464;30;8886;-92
2022/10/31 07:20:03;;;;;;;;;0.00;0.00;;;;;;;;4746106;30;8888;-92
2022/10/31 07:22:35;;;;;;;;;0.00;0.00;;;;;;;;4758170;29;8892;-91
2022/10/31 07:25:00;;;;;;;;;0.00;0.00;;;;;;;;4739290;30;8887;-91
2022/10/31 07:27:25;;;;;;;;;0.00;0.00;;;;;;;;4763041;30;11703;-92
2022/10/31 07:29:50;;;;;;;;;0.00;0.00;;;;;;;;4743857;30;8902;-90
2022/10/31 07:32:16;;;;;;;;;0.00;0.00;;;;;;;;4749809;30;8900;-88
2022/10/31 07:34:41;;;;;;;;;0.00;0.00;;;;;;;;4755361;30;8921;-89
2022/10/31 07:37:06;;;;;;;;;0.00;0.00;;;;;;;;4742929;30;8914;-89
2022/10/31 07:39:31;;;;;;;;;0.00;0.00;;;;;;;;4760430;30;9065;-87
2022/10/31 07:41:58;;;;;;;;;0.00;0.00;;;;;;;;4756383;30;8960;-88
2022/10/31 07:44:23;;;;;;;;;0.00;0.00;;;;;;;;4753072;30;8882;-88
2022/10/31 07:46:48;;;;;;;;;0.00;0.00;;;;;;;;4757184;30;11725;-86
2022/10/31 07:49:13;;;;;;;;;0.00;0.00;;;;;;;;4757829;30;8890;-87
2022/10/31 07:51:38;;;;;;;;;0.00;0.00;;;;;;;;4754626;30;9790;-88
2022/10/31 07:54:03;;;;;;;;;0.00;0.00;;;;;;;;4750793;30;8976;-84
2022/10/31 07:56:29;;;;;;;;;0.00;0.00;;;;;;;;4755638;29;9994;-84
2022/10/31 07:58:54;;;;;;;;;0.00;0.00;;;;;;;;4749802;30;8905;-84
2022/10/31 08:01:19;;;;;;;;;0.00;0.00;;;;;;;;4750297;30;9221;-85
2022/10/31 08:03:44;;;;;;;;;0.00;0.00;;;;;;;;4752506;29;8892;-85
2022/10/31 08:06:09;;;;;;;;;6.00;6.00;;;;;;;;4762951;30;8872;-86
2022/10/31 08:08:34;;;;;;;;;0.00;0.00;;;;;;;;4746093;30;9095;-85
2022/10/31 08:11:00;;;;;;;;;0.00;0.00;;;;;;;;4756830;30;8868;-85
2022/10/31 08:13:25;;;;;;;;;0.00;0.00;;;;;;;;4754671;30;8993;-85
2022/10/31 08:15:51;;;;;;;;;0.00;0.00;;;;;;;;4758024;30;8999;-84
2022/10/31 08:18:17;;;;;;;;;0.00;0.00;;;;;;;;4763953;30;8870;-89
2022/10/31 08:20:43;;;;;;;;;0.00;0.00;;;;;;;;4755780;30;11711;-88
2022/10/31 08:23:09;;;;;;;;;0.00;0.00;;;;;;;;4755120;30;8889;-88
2022/10/31 08:25:34;;;;;;;;;0.00;0.00;;;;;;;;4759487;30;8855;-90
2022/10/31 08:27:59;;;;;;;;;0.00;0.00;;;;;;;;4757020;30;11694;-88
2022/10/31 08:30:26;;;;;;;;;0.00;0.00;;;;;;;;4753546;30;8864;-88
2022/10/31 08:32:59;;;;;;;;;0.00;0.00;;;;;;;;4765058;30;9923;-88
2022/10/31 08:35:24;;;;;;;;;0.00;0.00;;;;;;;;4764179;30;11752;-89
2022/10/31 08:37:56;;;;;;;;;0.00;0.00;;;;;;;;4749366;30;8883;-88
2022/10/31 08:40:21;;;;;;;;;0.00;0.00;;;;;;;;4763371;30;8864;-88
2022/10/31 08:42:46;;;;;;;;;0.00;0.00;;;;;;;;4757320;30;11808;-88
2022/10/31 08:45:12;;;;;;;;;0.00;0.00;;;;;;;;4751505;30;8965;-87
2022/10/31 08:47:37;;;;;;;;;0.00;0.00;;;;;;;;4748836;30;8879;-85
2022/10/31 08:50:02;;;;;;;;;0.00;0.00;;;;;;;;4760811;30;8872;-85
2022/10/31 08:52:28;;;;;;;;;0.00;0.00;;;;;;;;4756002;30;8917;-88
2022/10/31 08:54:53;;;;;;;;;0.00;0.00;;;;;;;;4753498;30;8870;-89
2022/10/31 08:57:18;;;;;;;;;0.00;0.00;;;;;;;;4748340;30;8894;-88
2022/10/31 08:59:43;;;;;;;;;0.00;0.00;;;;;;;;4751886;30;8912;-88
2022/10/31 09:02:08;;;;;;;;;0.00;0.00;;;;;;;;4755833;30;8933;-88
2022/10/31 09:04:34;;;;;;;;;0.00;0.00;;;;;;;;4742822;30;8932;-90
2022/10/31 09:06:59;;;;;;;;;0.00;0.00;;;;;;;;4740678;30;9076;-88
2022/10/31 09:09:24;;;;;;;;;0.00;0.00;;;;;;;;4758681;30;8889;-88
2022/10/31 09:11:49;;;;;;;;;0.00;0.00;;;;;;;;4752608;30;8892;-89
2022/10/31 09:14:14;;;;;;;;;0.00;0.00;;;;;;;;4754924;30;8863;-88
2022/10/31 09:16:39;;;;;;;;;0.00;0.00;;;;;;;;4756470;30;9857;-88
2022/10/31 09:19:04;;;;;;;;;0.00;0.00;;;;;;;;4751100;30;8890;-90
2022/10/31 09:21:30;;;;;;;;;0.00;0.00;;;;;;;;4755728;30;8894;-90
2022/10/31 09:23:55;;;;;;;;;0.00;0.00;;;;;;;;4754136;30;8969;-89
2022/10/31 09:26:21;;;;;;;;;0.00;0.00;;;;;;;;4744605;29;9319;-93
2022/10/31 09:28:46;;;;;;;;;0.00;0.00;;;;;;;;4741497;30;8894;-92
2022/10/31 09:31:11;;;;;;;;;0.00;0.00;;;;;;;;4739424;30;8897;-93
2022/10/31 09:33:37;;;;;;;;;0.00;0.00;;;;;;;;4758223;30;8884;-89
2022/10/31 09:36:02;;;;;;;;;0.00;0.00;;;;;;;;4754958;29;8894;-92
2022/10/31 09:38:27;;;;;;;;;0.00;0.00;;;;;;;;4755651;30;8994;-91
2022/10/31 09:41:01;;;;;;;;;0.00;0.00;;;;;;;;4748515;30;8910;-92
2022/10/31 09:43:26;;;;;;;;;0.00;0.00;;;;;;;;4761734;30;8833;-91
2022/10/31 09:46:09;;;;;;;;;0.00;0.00;;;;;;;;4760280;29;11772;-91
2022/10/31 09:48:41;;;;;;;;;0.00;0.00;;;;;;;;4742759;30;10150;-91
2022/10/31 09:51:16;;;;;;;;;0.00;0.00;;;;;;;;4764851;30;11690;-91
2022/10/31 09:53:53;;;;;;;;;0.00;0.00;;;;;;;;4751671;30;11699;-90
2022/10/31 09:56:20;;;;;;;;;0.00;0.00;;;;;;;;4736272;30;12788;-92
2022/10/31 09:58:47;;;;;;;;;0.00;0.00;;;;;;;;4745519;30;12580;-91
2022/10/31 10:01:19;;;;;;;;;0.00;0.00;;;;;;;;4759880;29;11731;-90
2022/10/31 10:03:49;;;;;;;;;0.00;0.00;;;;;;;;4751124;30;11726;-91
2022/10/31 10:06:19;;;;;;;;;0.00;0.00;;;;;;;;4737612;30;11800;-92
2022/10/31 10:08:44;;;;;;;;;0.00;0.00;;;;;;;;4761030;30;11686;-89
2022/10/31 10:11:28;;;;;;;;;0.00;0.00;;;;;;;;4744684;30;11864;-90
2022/10/31 10:14:08;;;;;;;;;0.00;0.00;;;;;;;;4754137;30;8858;-91
2022/10/31 10:16:52;;;;;;;;;0.00;0.00;;;;;;;;4741210;30;11762;-90
2022/10/31 10:19:35;;;;;;;;;0.00;0.00;;;;;;;;4759641;30;11699;-91
2022/10/31 10:22:31;;;;;;;;;0.00;0.00;;;;;;;;4745990;30;11849;-90
2022/10/31 10:24:56;;;;;;;;;0.00;0.00;;;;;;;;4676103;30;11632;-90
2022/10/31 10:27:30;;;;;;;;;0.00;0.00;;;;;;;;4677299;30;11664;-90
2022/10/31 10:30:12;;;;;;;;;0.00;0.00;;;;;;;;4659502;30;9226;-93
2022/10/31 10:32:43;;;;;;;;;0.00;0.00;;;;;;;;4676351;30;11749;-91
2022/10/31 10:35:17;;;;;;;;;0.00;0.00;;;;;;;;4669387;30;11574;-95
2022/10/31 10:37:44;;;;;;;;;0.00;0.00;;;;;;;;4671330;30;11738;-92
2022/10/31 10:40:17;;;;;;;;;0.00;0.00;;;;;;;;4669072;30;11629;-91
2022/10/31 10:43:18;;;;;;;;;0.00;0.00;;;;;;;;4674781;30;11827;-90
2022/10/31 10:48:50;;;;;;;;;3.00;3.00;;;;;;;;4620283;30;11780;-91
2022/10/31 10:51:19;;;;;;;;;0.00;0.00;;;;;;;;4628162;30;11788;-90
2022/10/31 10:54:13;;;;;;;;;0.00;0.00;;;;;;;;4624213;30;11816;-90
2022/10/31 10:56:39;;;;;;;;;0.00;0.00;;;;;;;;4624497;30;11752;-91
2022/10/31 10:59:04;;;;;;;;;0.00;0.00;;;;;;;;4623714;30;11821;-92
2022/10/31 11:01:29;;;;;;;;;0.00;0.00;;;;;;;;4650700;30;9578;-90
2022/10/31 11:03:54;;;;;;;;;0.00;0.00;;;;;;;;4694278;30;8866;-92
2022/10/31 11:06:25;;;;;;;;;0.00;0.00;;;;;;;;4689942;30;8879;-91
2022/10/31 11:08:51;;;;;;;;;0.00;0.00;;;;;;;;4699142;30;8836;-90
2022/10/31 11:11:16;;;;;;;;;0.00;0.00;;;;;;;;4679330;30;12440;-90
2022/10/31 11:13:42;;;;;;;;;0.00;0.00;;;;;;;;4694558;30;8873;-90
2022/10/31 11:16:13;;;;;;;;;0.00;0.00;;;;;;;;4690890;30;8892;-88
2022/10/31 11:18:47;;;;;;;;;0.00;0.00;;;;;;;;4692601;30;8960;-89
2022/10/31 11:21:25;;;;;;;;;0.00;0.00;;;;;;;;4691067;30;11682;-91
2022/10/31 11:24:01;;;;;;;;;11.67;10.67;;;;;;;;4762292;30;11696;-91
2022/10/31 11:26:26;;;;;;;;;0.00;0.00;;;;;;;;4740845;30;11739;-93
2022/10/31 11:28:58;;;;;;;;;0.00;0.00;;;;;;;;4739719;30;8870;-89
2022/10/31 11:31:24;;;;;;;;;0.00;0.00;;;;;;;;4748088;30;8875;-89
2022/10/31 11:33:56;;;;;;;;;0.00;0.00;;;;;;;;4734367;30;11742;-88
2022/10/31 11:36:23;;;;;;;;;0.00;0.00;;;;;;;;4763347;30;8914;-89
2022/10/31 11:38:49;;;;;;;;;0.00;0.00;;;;;;;;4751245;30;11826;-87
2022/10/31 11:41:19;;;;;;;;;2.00;2.00;;;;;;;;4753785;30;11743;-90
2022/10/31 11:43:53;;;;;;;;;0.00;0.00;;;;;;;;4766379;29;11914;-95
2022/10/31 11:46:21;;;;;;;;;0.00;0.00;;;;;;;;4743174;30;11699;-91
2022/10/31 11:48:47;;;;;;;;;0.00;0.00;;;;;;;;4760056;30;11733;-91
2022/10/31 11:51:19;;;;;;;;;0.00;0.00;;;;;;;;4747173;30;11739;-87
2022/10/31 11:53:50;;;;;;;;;0.00;0.00;;;;;;;;4744615;30;11703;-86
2022/10/31 11:56:16;;;;;;;;;0.00;0.00;;;;;;;;4752581;30;11731;-87
2022/10/31 11:58:42;;;;;;;;;0.00;0.00;;;;;;;;4751401;29;11687;-88
2022/10/31 12:01:22;;;;;;;;;0.00;0.00;;;;;;;;4748404;30;8914;-87
2022/10/31 12:03:50;;;;;;;;;0.67;0.67;;;;;;;;4753542;30;9004;-88
2022/10/31 12:06:23;;;;;;;;;1.00;1.00;;;;;;;;4761082;30;11726;-90
2022/10/31 12:08:49;;;;;;;;;0.00;0.00;;;;;;;;4754448;30;11728;-93
2022/10/31 12:11:29;;;;;;;;;0.00;0.00;;;;;;;;4757764;30;11725;-90
2022/10/31 12:14:09;;;;;;;;;0.00;0.00;;;;;;;;4739921;30;8847;-89
2022/10/31 12:16:34;;;;;;;;;0.00;0.00;;;;;;;;4742973;30;11680;-88
2022/10/31 12:19:18;;;;;;;;;0.00;0.00;;;;;;;;4738582;30;12552;-88
2022/10/31 12:22:00;;;;;;;;;0.00;0.00;;;;;;;;4757645;30;9581;-88
2022/10/31 12:24:29;;;;;;;;;0.00;0.00;;;;;;;;4763796;30;11695;-88
2022/10/31 12:26:54;;;;;;;;;0.00;0.00;;;;;;;;4758731;30;11728;-87
2022/10/31 12:29:25;;;;;;;;;0.00;0.00;;;;;;;;4765490;30;11691;-90
2022/10/31 12:31:53;;;;;;;;;0.00;0.00;;;;;;;;4756965;30;11173;-89
2022/10/31 12:34:18;;;;;;;;;0.00;0.00;;;;;;;;4756443;30;11719;-90
2022/10/31 12:36:52;;;;;;;;;0.00;0.00;;;;;;;;4758432;30;11760;-91
2022/10/31 12:39:43;;;;;;;;;0.00;0.00;;;;;;;;4763101;29;10119;-91
2022/10/31 12:42:35;;;;;;;;;1.50;1.50;;;;;;;;4756112;30;11792;-92
2022/10/31 12:45:07;;;;;;;;;0.00;0.00;;;;;;;;4743825;30;11740;-90
2022/10/31 12:47:50;;;;;;;;;0.00;0.00;;;;;;;;4759345;30;11710;-92
2022/10/31 12:50:21;;;;;;;;;0.00;0.00;;;;;;;;4741679;30;11687;-91
2022/10/31 12:52:57;;;;;;;;;0.00;0.00;;;;;;;;4765797;29;11702;-92
2022/10/31 12:55:25;;;;;;;;;0.00;0.00;;;;;;;;4762615;30;11808;-91
2022/10/31 12:58:16;;;;;;;;;1.00;0.00;;;;;;;;4766791;30;11686;-90
2022/10/31 13:00:44;;;;;;;;;0.00;0.00;;;;;;;;4695367;30;11763;-91
2022/10/31 13:03:15;;;;;;;;;0.00;0.00;;;;;;;;4677723;30;11746;-91
2022/10/31 13:05:42;;;;;;;;;0.00;0.00;;;;;;;;4692455;30;11737;-91
2022/10/31 13:08:18;;;;;;;;;0.00;0.00;;;;;;;;4693274;30;11748;-91
2022/10/31 13:10:49;;;;;;;;;0.00;0.00;;;;;;;;4694686;30;11742;-91
2022/10/31 13:13:18;;;;;;;;;0.00;0.00;;;;;;;;4677261;30;11860;-91
2022/10/31 13:15:51;;;;;;;;;0.00;0.00;;;;;;;;4677270;30;11728;-91
2022/10/31 13:18:25;;;;;;;;;0.00;0.00;;;;;;;;4680262;30;12513;-92
2022/10/31 13:20:51;;;;;;;;;0.00;0.00;;;;;;;;4695152;30;11728;-91
2022/10/31 13:23:21;;;;;;;;;0.00;0.00;;;;;;;;4693305;30;11787;-90
2022/10/31 13:25:49;;;;;;;;;0.00;0.00;;;;;;;;4693726;30;8974;-91
2022/10/31 13:28:20;;;;;;;;;0.00;0.00;;;;;;;;4673117;30;11724;-91
2022/10/31 13:30:46;;;;;;;;;0.00;0.00;;;;;;;;4678554;30;11814;-90
2022/10/31 13:33:29;;;;;;;;;18.00;18.00;;;;;;;;4693637;30;11791;-91
2022/10/31 13:35:54;;;;;;;;;0.00;0.00;;;;;;;;4679132;30;11835;-92
2022/10/31 13:38:30;;;;;;;;;0.00;0.00;;;;;;;;4751520;30;11710;-92
2022/10/31 13:41:11;;;;;;;;;0.00;0.00;;;;;;;;4753149;30;8843;-91
2022/10/31 13:44:03;;;;;;;;;0.00;0.00;;;;;;;;4758872;30;11691;-91
2022/10/31 13:46:31;;;;;;;;;0.00;0.00;;;;;;;;4672091;30;11666;-91
2022/10/31 13:48:56;;;;;;;;;0.00;0.00;;;;;;;;4691311;30;11619;-89
2022/10/31 13:51:28;;;;;;;;;0.00;0.00;;;;;;;;4677787;30;11663;-94
2022/10/31 13:54:12;;;;;;;;;0.00;0.00;;;;;;;;4688476;30;8874;-92
2022/10/31 13:56:39;;;;;;;;;0.00;0.00;;;;;;;;4687329;30;11722;-91
2022/10/31 13:59:11;;;;;;;;;0.00;0.00;;;;;;;;4686177;30;11644;-91
2022/10/31 14:01:45;;;;;;;;;0.00;0.00;;;;;;;;4678424;30;11646;-91
2022/10/31 14:04:18;;;;;;;;;0.00;0.00;;;;;;;;4691830;30;11672;-90
2022/10/31 14:06:49;;;;;;;;;0.00;0.00;;;;;;;;4678069;30;11628;-91
2022/10/31 14:09:28;;;;;;;;;0.00;0.00;;;;;;;;4682609;30;11603;-91
2022/10/31 14:11:55;;;;;;;;;0.00;0.00;;;;;;;;4680373;30;11625;-90
2022/10/31 14:14:22;;;;;;;;;0.00;0.00;;;;;;;;4667717;30;11617;-89
2022/10/31 14:16:53;;;;;;;;;0.00;0.00;;;;;;;;4658063;30;11647;-91
2022/10/31 14:19:20;;;;;;;;;0.00;0.00;;;;;;;;4675155;30;11697;-91
2022/10/31 14:21:46;;;;;;;;;0.00;0.00;;;;;;;;4682725;30;11729;-90
2022/10/31 14:24:23;;;;;;;;;0.00;0.00;;;;;;;;4750732;30;11827;-90
2022/10/31 14:26:58;;;;;;;;;0.00;0.00;;;;;;;;4743892;30;11722;-92
2022/10/31 14:29:25;;;;;;;;;0.00;0.00;;;;;;;;4756318;30;11679;-92
2022/10/31 14:31:55;;;;;;;;;0.00;0.00;;;;;;;;4754474;30;11686;-92
2022/10/31 14:34:30;;;;;;;;;0.00;0.00;;;;;;;;4743917;30;11725;-91
2022/10/31 14:37:19;;;;;;;;;0.00;0.00;;;;;;;;4756680;30;11707;-91
2022/10/31 14:40:00;;;;;;;;;0.00;0.00;;;;;;;;4737172;30;11748;-90
2022/10/31 14:42:27;;;;;;;;;0.00;0.00;;;;;;;;4759480;30;11722;-91
2022/10/31 14:44:53;;;;;;;;;0.00;0.00;;;;;;;;4742809;30;12488;-91
2022/10/31 14:47:36;;;;;;;;;0.00;0.00;;;;;;;;4746049;30;11718;-90
2022/10/31 14:50:20;;;;;;;;;0.00;0.00;;;;;;;;4757828;30;9891;-91
2022/10/31 14:52:53;;;;;;;;;0.00;0.00;;;;;;;;4759322;30;11687;-91
2022/10/31 14:55:19;;;;;;;;;0.00;0.00;;;;;;;;4760174;30;11730;-91
2022/10/31 14:57:54;;;;;;;;;0.00;0.00;;;;;;;;4756955;30;11710;-91
2022/10/31 15:00:20;;;;;;;;;0.00;0.00;;;;;;;;4758331;30;11683;-91
2022/10/31 15:02:51;;;;;;;;;0.00;0.00;;;;;;;;4761940;30;11686;-92